LFAT 181530Z AUTO 28010KT 240V310 CAVOK 22/17 Q1014 TEMPO BKN010

ElémentsDécodage
LFAT Station météo située sur l'aérodrome de LE-TOUQUET Paris-Plage
181530Z émis le 18 du mois à 15h30 UTC
AUTO Bulletin édité par un automate
28010KT vent du 280°, 10 noeuds
240V310 vent de direction variable entre 240° et 310°
CAVOK Ceiling And Visibility OK
- Visibilité de 10 Km ou plus
- Pas de nuage au-dessous de 1500m ou au-dessous de l'altitude minimale du secteur la plus élevée (si>1500m) et absence de CB
- pas de temps présent significatif
22/17 température 22°C, point de rosée 17°C
 soit une humidité relative de 73%
Q1014 la pression au niveau de la mer (QNH) est de 1014 hPa
TEMPO fluctuation temporaire prévue
BKN010 nuages morcelés (5/8 à 7/8) à 1000 pieds